createdAt,value
2022-12-04T00:00:31.384Z,100714.98
2022-12-04T00:03:01.900Z,100722.88
2022-12-04T00:05:32.488Z,100723.20
2022-12-04T00:08:03.812Z,100730.45
2022-12-04T00:10:34.520Z,100735.65
2022-12-04T00:13:04.923Z,100734.39
2022-12-04T00:15:35.368Z,100726.91
2022-12-04T00:18:06.347Z,100727.62
2022-12-04T00:20:39.628Z,100726.23
2022-12-04T00:23:10.382Z,100720.57
2022-12-04T00:25:41.537Z,100716.96
2022-12-04T00:28:12.210Z,100713.18
2022-12-04T00:30:45.542Z,100709.41
2022-12-04T00:33:16.250Z,100713.64
2022-12-04T00:35:46.725Z,100718.42
2022-12-04T00:38:17.175Z,100719.95
2022-12-04T00:40:52.654Z,100718.56
2022-12-04T00:43:23.989Z,100717.30
2022-12-04T00:45:54.513Z,100711.61
2022-12-04T00:48:25.372Z,100704.16
2022-12-04T00:50:56.103Z,100703.34
2022-12-04T00:53:26.533Z,100713.15
2022-12-04T00:55:57.008Z,100714.23
2022-12-04T00:58:27.464Z,100708.76
2022-12-04T01:01:05.078Z,100706.54
2022-12-04T01:03:36.469Z,100710.89
2022-12-04T01:06:08.765Z,100712.68
2022-12-04T01:08:39.220Z,100698.64
2022-12-04T01:11:09.906Z,100696.40
2022-12-04T01:13:40.351Z,100696.64
2022-12-04T01:16:16.249Z,100698.45
2022-12-04T01:18:46.955Z,100698.11
2022-12-04T01:21:18.113Z,100692.88
2022-12-04T01:23:48.630Z,100688.13
2022-12-04T01:26:19.157Z,100679.68
2022-12-04T01:28:49.726Z,100680.66
2022-12-04T01:31:22.298Z,100679.47
2022-12-04T01:33:53.755Z,100672.56
2022-12-04T01:36:26.127Z,100670.32
2022-12-04T01:38:57.351Z,100677.90
2022-12-04T01:41:30.343Z,100677.92
2022-12-04T01:44:17.800Z,100676.26
2022-12-04T01:46:51.490Z,100677.37
2022-12-04T01:49:26.650Z,100677.11
2022-12-04T01:52:00.081Z,100670.54
2022-12-04T01:54:32.804Z,100672.35
2022-12-04T01:57:07.987Z,100672.10
2022-12-04T01:59:46.460Z,100660.86
2022-12-04T02:02:20.500Z,100654.95
2022-12-04T02:04:51.506Z,100652.30
2022-12-04T02:07:21.919Z,100646.94
2022-12-04T02:09:56.268Z,100658.94
2022-12-04T02:12:37.524Z,100665.06
2022-12-04T02:15:14.947Z,100664.41
2022-12-04T02:17:54.989Z,100664.83
2022-12-04T02:20:34.282Z,100670.73
2022-12-04T02:23:26.952Z,100671.26
2022-12-04T02:26:04.979Z,100665.08
2022-12-04T02:28:45.423Z,100659.91
2022-12-04T02:31:20.844Z,100653.86
2022-12-04T02:33:59.303Z,100654.22
2022-12-04T02:36:34.259Z,100656.89
2022-12-04T02:39:10.885Z,100667.77
2022-12-04T02:41:47.259Z,100662.45
2022-12-04T02:44:21.984Z,100658.36
2022-12-04T02:46:57.002Z,100655.54
2022-12-04T02:49:33.191Z,100657.27
2022-12-04T02:52:09.045Z,100663.46
2022-12-04T02:54:43.600Z,100668.96
2022-12-04T02:57:20.026Z,100668.40
2022-12-04T02:59:53.638Z,100666.96
2022-12-04T03:02:30.586Z,100664.68
2022-12-04T03:05:06.262Z,100654.16
2022-12-04T03:07:42.191Z,100643.33
2022-12-04T03:10:17.372Z,100651.33
2022-12-04T03:12:53.221Z,100654.44
2022-12-04T03:15:28.763Z,100659.10
2022-12-04T03:18:04.213Z,100652.86
2022-12-04T03:20:37.654Z,100654.58
2022-12-04T03:23:14.089Z,100661.05
2022-12-04T03:25:52.658Z,100657.62
2022-12-04T03:28:32.551Z,100657.91
2022-12-04T03:31:09.513Z,100660.87
2022-12-04T03:33:43.337Z,100658.62
2022-12-04T03:36:21.141Z,100658.59
2022-12-04T03:38:57.709Z,100658.52
2022-12-04T03:41:33.859Z,100661.81
2022-12-04T03:44:12.212Z,100658.93
2022-12-04T03:46:49.180Z,100659.34
2022-12-04T03:49:24.226Z,100665.23
2022-12-04T03:52:00.549Z,100665.00
2022-12-04T03:54:34.722Z,100662.12
2022-12-04T03:57:12.476Z,100659.58
2022-12-04T03:59:53.944Z,100656.84
2022-12-04T04:02:34.199Z,100658.02
2022-12-04T04:05:10.704Z,100657.34
2022-12-04T04:07:48.846Z,100649.86
2022-12-04T04:10:21.982Z,100642.98
2022-12-04T04:13:12.369Z,100640.70
2022-12-04T04:16:07.722Z,100640.02
2022-12-04T04:18:57.106Z,100639.67
2022-12-04T04:21:50.947Z,100635.70
2022-12-04T04:24:34.474Z,100633.73
2022-12-04T04:27:06.126Z,100632.64
2022-12-04T04:29:37.148Z,100629.40
2022-12-04T04:32:14.403Z,100628.45
2022-12-04T04:34:55.855Z,100627.06
2022-12-04T04:37:35.195Z,100630.30
2022-12-04T04:40:13.381Z,100624.05
2022-12-04T04:42:51.809Z,100628.02
2022-12-04T04:45:27.842Z,100630.11
2022-12-04T04:48:05.270Z,100630.55
2022-12-04T04:50:37.148Z,100629.07
2022-12-04T04:53:10.824Z,100624.63
2022-12-04T04:55:42.176Z,100624.14
2022-12-04T04:58:14.844Z,100623.94
2022-12-04T05:00:51.925Z,100628.14
2022-12-04T05:03:22.433Z,100627.77
2022-12-04T05:05:52.895Z,100632.83
2022-12-04T05:08:23.718Z,100639.39
2022-12-04T05:10:54.189Z,100646.85
2022-12-04T05:13:25.285Z,100646.02
2022-12-04T05:16:03.611Z,100644.14
2022-12-04T05:18:35.667Z,100642.24
2022-12-04T05:21:09.427Z,100640.48
2022-12-04T05:23:39.834Z,100639.23
2022-12-04T05:26:12.186Z,100635.84
2022-12-04T05:28:42.633Z,100637.69
2022-12-04T05:31:13.071Z,100631.91
2022-12-04T05:33:43.601Z,100630.60
2022-12-04T05:36:14.375Z,100628.54
2022-12-04T05:38:44.838Z,100625.30
2022-12-04T05:41:15.265Z,100630.11
2022-12-04T05:43:45.795Z,100632.00
2022-12-04T05:46:16.927Z,100634.64
2022-12-04T05:48:47.530Z,100637.98
2022-12-04T05:51:18.325Z,100640.25
2022-12-04T05:53:48.773Z,100641.02
2022-12-04T05:56:19.253Z,100642.73
2022-12-04T05:58:49.996Z,100648.77
2022-12-04T06:01:23.797Z,100647.09
2022-12-04T06:03:54.198Z,100642.02
2022-12-04T06:06:26.702Z,100640.66
2022-12-04T06:09:00.885Z,100641.48
2022-12-04T06:11:33.235Z,100643.80
2022-12-04T06:14:05.872Z,100648.30
2022-12-04T06:16:36.774Z,100651.86
2022-12-04T06:19:10.395Z,100659.94
2022-12-04T06:21:42.940Z,100668.88
2022-12-04T06:24:16.553Z,100660.79
2022-12-04T06:27:18.783Z,100657.44
2022-12-04T06:29:38.095Z,100665.20
2022-12-04T06:32:08.757Z,100673.01
2022-12-04T06:34:39.502Z,100674.12
2022-12-04T06:37:10.153Z,100667.82
2022-12-04T06:39:40.684Z,100666.48
2022-12-04T06:42:11.073Z,100670.52
2022-12-04T06:44:41.474Z,100673.82
2022-12-04T06:47:12.353Z,100671.06
2022-12-04T06:49:42.881Z,100674.47
2022-12-04T06:52:13.345Z,100670.67
2022-12-04T06:54:45.185Z,100669.55
2022-12-04T06:57:15.581Z,100666.52
2022-12-04T06:59:46.030Z,100657.35
2022-12-04T07:02:16.557Z,100658.50
2022-12-04T07:04:47.332Z,100658.77
2022-12-04T07:07:17.772Z,100655.32
2022-12-04T07:09:48.374Z,100657.86
2022-12-04T07:12:18.982Z,100656.63
2022-12-04T07:14:49.526Z,100656.83
2022-12-04T07:17:19.946Z,100658.16
2022-12-04T07:19:50.479Z,100654.05
2022-12-04T07:22:21.002Z,100652.02
2022-12-04T07:24:51.417Z,100646.46
2022-12-04T07:27:21.846Z,100649.73
2022-12-04T07:29:54.298Z,100654.29
2022-12-04T07:32:24.987Z,100656.48
2022-12-04T07:34:55.491Z,100659.96
2022-12-04T07:37:25.960Z,100660.92
2022-12-04T07:39:56.638Z,100663.54
2022-12-04T07:42:27.410Z,100670.08
2022-12-04T07:44:57.919Z,100680.84
2022-12-04T07:47:28.351Z,100683.08
2022-12-04T07:49:58.923Z,100690.13
2022-12-04T07:52:29.471Z,100686.05
2022-12-04T07:55:00.329Z,100677.19
2022-12-04T07:57:31.660Z,100675.64
2022-12-04T08:00:02.358Z,100673.95
2022-12-04T08:02:42.581Z,100669.23
2022-12-04T08:05:13.037Z,100669.11
2022-12-04T08:07:43.534Z,100667.34
2022-12-04T08:10:14.664Z,100659.35
2022-12-04T08:12:45.212Z,100659.28
2022-12-04T08:15:15.629Z,100662.91
2022-12-04T08:17:46.076Z,100668.59
2022-12-04T08:20:16.699Z,100670.77
2022-12-04T08:22:47.136Z,100672.05
2022-12-04T08:25:18.420Z,100675.31
2022-12-04T08:27:48.869Z,100675.00
2022-12-04T08:30:20.110Z,100679.33
2022-12-04T08:32:50.533Z,100675.15
2022-12-04T08:35:21.037Z,100675.89
2022-12-04T08:37:51.461Z,100671.66
2022-12-04T08:40:21.944Z,100673.20
2022-12-04T08:42:52.388Z,100672.20
2022-12-04T08:45:22.853Z,100672.50
2022-12-04T08:47:53.346Z,100679.41
2022-12-04T08:50:24.315Z,100685.41
2022-12-04T08:52:54.740Z,100685.16
2022-12-04T08:55:25.200Z,100694.39
2022-12-04T08:57:55.942Z,100704.60
2022-12-04T09:00:27.352Z,100705.89
2022-12-04T09:02:58.020Z,100706.79
2022-12-04T09:05:28.530Z,100700.34
2022-12-04T09:07:59.086Z,100690.25
2022-12-04T09:10:29.624Z,100687.91
2022-12-04T09:13:00.080Z,100689.45
2022-12-04T09:15:30.890Z,100689.39
2022-12-04T09:18:01.610Z,100680.81
2022-12-04T09:20:32.281Z,100680.64
2022-12-04T09:23:04.438Z,100681.96
2022-12-04T09:25:38.401Z,100684.12
2022-12-04T09:28:08.816Z,100679.27
2022-12-04T09:30:39.362Z,100669.29
2022-12-04T09:33:10.064Z,100673.60
2022-12-04T09:35:42.068Z,100677.30
2022-12-04T09:38:12.506Z,100681.68
2022-12-04T09:40:52.156Z,100682.69
2022-12-04T09:43:31.728Z,100682.20
2022-12-04T09:46:09.744Z,100676.78
2022-12-04T09:48:44.249Z,100675.61
2022-12-04T09:51:20.433Z,100675.13
2022-12-04T09:53:56.170Z,100669.00
2022-12-04T09:56:31.494Z,100665.52
2022-12-04T09:59:10.022Z,100663.89
2022-12-04T10:01:46.004Z,100664.48
2022-12-04T10:04:17.763Z,100663.27
2022-12-04T10:06:54.400Z,100658.95
2022-12-04T10:09:31.618Z,100656.94
2022-12-04T10:12:17.431Z,100652.98
2022-12-04T10:15:01.169Z,100653.25
2022-12-04T10:17:43.233Z,100656.13
2022-12-04T10:20:28.407Z,100653.55
2022-12-04T10:23:12.283Z,100647.02
2022-12-04T10:25:45.067Z,100644.36
2022-12-04T10:28:24.326Z,100643.77
2022-12-04T10:30:59.738Z,100650.88
2022-12-04T10:33:36.896Z,100649.27
2022-12-04T10:36:11.867Z,100651.11
2022-12-04T10:38:48.537Z,100644.00
2022-12-04T10:41:27.673Z,100640.63
2022-12-04T10:43:58.309Z,100635.93
2022-12-04T10:46:31.061Z,100631.90
2022-12-04T10:49:05.120Z,100627.77
2022-12-04T10:51:42.450Z,100625.77
2022-12-04T10:54:21.813Z,100624.24
2022-12-04T10:56:57.434Z,100618.02
2022-12-04T10:59:30.411Z,100615.98
2022-12-04T11:02:13.512Z,100616.27
2022-12-04T11:04:44.551Z,100616.64
2022-12-04T11:07:23.377Z,100618.23
2022-12-04T11:10:01.636Z,100616.52
2022-12-04T11:12:33.588Z,100616.16
2022-12-04T11:15:13.396Z,100610.46
2022-12-04T11:17:43.938Z,100605.02
2022-12-04T11:20:20.082Z,100598.45
2022-12-04T11:22:57.008Z,100595.06
2022-12-04T11:25:31.604Z,100597.02
2022-12-04T11:28:04.758Z,100594.20
2022-12-04T11:30:38.528Z,100593.94
2022-12-04T11:33:19.395Z,100591.67
2022-12-04T11:35:58.799Z,100587.70
2022-12-04T11:38:31.708Z,100581.52
2022-12-04T11:41:07.294Z,100582.23
2022-12-04T11:43:38.011Z,100584.18
2022-12-04T11:46:21.153Z,100582.73
2022-12-04T11:48:52.702Z,100574.27
2022-12-04T11:51:35.207Z,100574.63
2022-12-04T11:54:16.399Z,100575.77
2022-12-04T11:56:51.822Z,100578.55
2022-12-04T11:59:46.239Z,100576.18
2022-12-04T12:02:34.257Z,100577.27
2022-12-04T12:05:20.073Z,100580.60
2022-12-04T12:08:03.020Z,100575.65
2022-12-04T12:10:45.113Z,100576.98
2022-12-04T12:13:24.704Z,100573.38
2022-12-04T12:16:05.436Z,100572.33
2022-12-04T12:18:57.915Z,100569.25
2022-12-04T12:21:35.410Z,100570.48
2022-12-04T12:24:21.912Z,100579.86
2022-12-04T12:27:02.094Z,100585.88
2022-12-04T12:29:44.853Z,100589.13
2022-12-04T12:32:29.583Z,100592.43
2022-12-04T12:35:01.402Z,100588.57
2022-12-04T12:37:41.450Z,100582.98
2022-12-04T12:40:26.358Z,100582.80
2022-12-04T12:43:02.655Z,100584.77
2022-12-04T12:45:41.808Z,100582.62
2022-12-04T12:48:24.431Z,100582.52
2022-12-04T12:51:21.980Z,100586.27
2022-12-04T12:53:54.378Z,100585.17
2022-12-04T12:56:32.981Z,100584.30
2022-12-04T12:59:05.164Z,100584.36
2022-12-04T13:01:44.599Z,100580.48
2022-12-04T13:04:21.700Z,100573.19
2022-12-04T13:07:15.730Z,100568.31
2022-12-04T13:09:54.079Z,100560.89
2022-12-04T13:12:23.688Z,100554.35
2022-12-04T13:14:54.223Z,100550.83
2022-12-04T13:17:31.871Z,100550.15
2022-12-04T13:20:10.216Z,100551.83
2022-12-04T13:22:53.462Z,100550.06
2022-12-04T13:25:43.275Z,100544.25
2022-12-04T13:28:27.709Z,100535.22
2022-12-04T13:31:06.068Z,100531.83
2022-12-04T13:34:00.601Z,100529.62
2022-12-04T13:36:47.230Z,100527.98
2022-12-04T13:39:59.119Z,100525.33
2022-12-04T13:42:31.365Z,100526.29
2022-12-04T13:45:06.375Z,100529.02
2022-12-04T13:47:38.066Z,100524.45
2022-12-04T13:50:29.777Z,100522.21
2022-12-04T13:53:01.651Z,100528.17
2022-12-04T13:55:36.193Z,100535.50
2022-12-04T13:58:28.772Z,100539.79
2022-12-04T14:01:06.142Z,100544.66
2022-12-04T14:03:46.799Z,100557.58
2022-12-04T14:06:27.072Z,100562.33
2022-12-04T14:09:05.146Z,100561.16
2022-12-04T14:11:46.703Z,100560.71
2022-12-04T14:14:29.248Z,100561.59
2022-12-04T14:17:01.549Z,100566.09
2022-12-04T14:19:36.962Z,100565.74
2022-12-04T14:22:07.696Z,100567.09
2022-12-04T14:24:40.260Z,100567.84
2022-12-04T14:27:36.393Z,100569.54
2022-12-04T14:30:16.814Z,100572.90
2022-12-04T14:32:48.111Z,100578.44
2022-12-04T14:35:21.510Z,100580.91
2022-12-04T14:37:57.172Z,100576.24
2022-12-04T14:40:29.545Z,100574.80
2022-12-04T14:43:01.310Z,100579.52
2022-12-04T14:45:40.058Z,100582.16
2022-12-04T14:48:19.451Z,100585.27
2022-12-04T14:50:54.890Z,100584.49
2022-12-04T14:53:36.689Z,100583.84
2022-12-04T14:56:24.521Z,100586.45
2022-12-04T14:58:55.680Z,100586.46
2022-12-04T15:01:29.649Z,100579.30
2022-12-04T15:04:08.740Z,100582.35
2022-12-04T15:06:42.101Z,100581.41
2022-12-04T15:09:38.404Z,100581.26
2022-12-04T15:12:34.951Z,100583.77
2022-12-04T15:15:15.139Z,100584.38
2022-12-04T15:17:56.185Z,100578.73
2022-12-04T15:20:27.442Z,100578.20
2022-12-04T15:22:58.981Z,100574.80
2022-12-04T15:25:34.043Z,100572.11
2022-12-04T15:28:12.160Z,100576.20
2022-12-04T15:30:45.085Z,100578.69
2022-12-04T15:33:21.546Z,100582.55
2022-12-04T15:35:57.372Z,100587.79
2022-12-04T15:38:28.405Z,100590.57
2022-12-04T15:41:01.081Z,100590.11
2022-12-04T15:43:34.260Z,100598.33
2022-12-04T15:46:15.548Z,100606.19
2022-12-04T15:48:47.949Z,100603.41
2022-12-04T15:51:21.728Z,100603.96
2022-12-04T15:53:52.199Z,100606.26
2022-12-04T15:56:25.558Z,100608.66
2022-12-04T15:59:00.732Z,100608.93
2022-12-04T16:01:41.070Z,100608.92
2022-12-04T16:04:23.163Z,100607.39
2022-12-04T16:06:54.850Z,100607.20
2022-12-04T16:09:26.775Z,100607.34
2022-12-04T16:12:03.727Z,100605.06
2022-12-04T16:14:34.203Z,100602.72
2022-12-04T16:17:06.481Z,100606.94
2022-12-04T16:19:39.798Z,100607.11
2022-12-04T16:22:20.563Z,100609.48
2022-12-04T16:24:51.561Z,100610.37
2022-12-04T16:27:24.663Z,100611.11
2022-12-04T16:29:55.644Z,100608.61
2022-12-04T16:32:31.263Z,100602.84
2022-12-04T16:35:02.243Z,100602.41
2022-12-04T16:37:32.941Z,100602.77
2022-12-04T16:40:06.561Z,100599.45
2022-12-04T16:42:37.017Z,100600.53
2022-12-04T16:45:23.369Z,100605.33
2022-12-04T16:47:53.874Z,100603.06
2022-12-04T16:50:24.419Z,100601.94
2022-12-04T16:52:55.336Z,100600.27
2022-12-04T16:55:30.582Z,100605.90
2022-12-04T16:58:02.852Z,100608.79
2022-12-04T17:00:33.795Z,100619.59
2022-12-04T17:03:05.256Z,100617.84
2022-12-04T17:05:36.023Z,100613.08
2022-12-04T17:08:06.789Z,100615.27
2022-12-04T17:10:37.305Z,100617.84
2022-12-04T17:13:07.770Z,100618.93
2022-12-04T17:15:38.618Z,100622.83
2022-12-04T17:18:12.927Z,100619.14
2022-12-04T17:20:47.117Z,100621.65
2022-12-04T17:23:17.574Z,100623.85
2022-12-04T17:25:48.015Z,100624.19
2022-12-04T17:28:18.648Z,100626.21
2022-12-04T17:30:49.382Z,100627.37
2022-12-04T17:33:19.803Z,100629.89
2022-12-04T17:35:50.831Z,100636.79
2022-12-04T17:38:21.371Z,100632.80
2022-12-04T17:41:02.093Z,100633.44
2022-12-04T17:43:33.631Z,100628.28
2022-12-04T17:46:09.403Z,100631.91
2022-12-04T17:48:40.103Z,100624.59
2022-12-04T17:51:12.963Z,100625.63
2022-12-04T17:53:43.821Z,100626.29
2022-12-04T17:56:17.200Z,100624.98
2022-12-04T17:58:48.258Z,100624.01
2022-12-04T18:01:21.567Z,100625.34
2022-12-04T18:03:54.597Z,100629.20
2022-12-04T18:06:29.006Z,100625.67
2022-12-04T18:08:59.869Z,100627.02
2022-12-04T18:11:32.802Z,100627.71
2022-12-04T18:14:10.284Z,100624.66
2022-12-04T18:16:44.777Z,100618.08
2022-12-04T18:19:16.238Z,100617.00
2022-12-04T18:21:46.908Z,100615.17
2022-12-04T18:24:18.122Z,100614.92
2022-12-04T18:26:50.065Z,100610.16
2022-12-04T18:29:22.570Z,100607.91
2022-12-04T18:31:53.468Z,100609.11
2022-12-04T18:34:24.442Z,100614.98
2022-12-04T18:36:55.010Z,100609.73
2022-12-04T18:39:27.593Z,100609.59
2022-12-04T18:41:58.620Z,100608.47
2022-12-04T18:44:29.523Z,100607.50
2022-12-04T18:46:59.932Z,100610.05
2022-12-04T18:49:30.415Z,100606.29
2022-12-04T18:52:01.248Z,100605.74
2022-12-04T18:54:31.710Z,100610.23
2022-12-04T18:57:03.201Z,100608.52
2022-12-04T18:59:33.830Z,100605.73
2022-12-04T19:02:04.873Z,100605.39
2022-12-04T19:04:35.524Z,100602.06
2022-12-04T19:07:06.135Z,100602.27
2022-12-04T19:10:09.343Z,100601.59
2022-12-04T19:12:28.087Z,100603.41
2022-12-04T19:14:58.547Z,100610.70
2022-12-04T19:17:29.041Z,100611.67
2022-12-04T19:19:59.781Z,100615.56
2022-12-04T19:22:31.394Z,100615.73
2022-12-04T19:25:01.962Z,100616.06
2022-12-04T19:27:32.449Z,100616.70
2022-12-04T19:30:02.902Z,100616.24
2022-12-04T19:32:33.536Z,100617.91
2022-12-04T19:35:04.146Z,100613.78
2022-12-04T19:37:39.620Z,100613.06
2022-12-04T19:40:14.748Z,100620.23
2022-12-04T19:42:45.152Z,100622.00
2022-12-04T19:45:15.935Z,100622.01
2022-12-04T19:47:46.422Z,100623.21
2022-12-04T19:50:16.833Z,100622.88
2022-12-04T19:52:47.296Z,100620.33
2022-12-04T19:55:17.802Z,100623.50
2022-12-04T19:57:48.230Z,100626.30
2022-12-04T20:00:20.167Z,100628.65
2022-12-04T20:02:50.742Z,100630.48
2022-12-04T20:05:21.363Z,100627.65
2022-12-04T20:07:51.975Z,100626.80
2022-12-04T20:10:22.851Z,100624.56
2022-12-04T20:12:53.285Z,100627.52
2022-12-04T20:15:23.960Z,100628.98
2022-12-04T20:17:54.390Z,100631.30
2022-12-04T20:20:24.983Z,100629.79
2022-12-04T20:22:55.847Z,100633.57
2022-12-04T20:25:26.459Z,100638.48
2022-12-04T20:27:57.191Z,100639.09
2022-12-04T20:30:28.946Z,100639.14
2022-12-04T20:32:59.640Z,100638.76
2022-12-04T20:35:30.129Z,100640.66
2022-12-04T20:38:00.558Z,100637.54
2022-12-04T20:40:31.167Z,100640.81
2022-12-04T20:43:01.617Z,100640.09
2022-12-04T20:45:33.353Z,100645.27
2022-12-04T20:48:03.835Z,100642.14
2022-12-04T20:50:34.742Z,100640.85
2022-12-04T20:53:05.184Z,100643.29
2022-12-04T20:55:35.600Z,100641.34
2022-12-04T20:58:06.177Z,100640.80
2022-12-04T21:00:37.709Z,100635.59
2022-12-04T21:03:08.176Z,100634.90
2022-12-04T21:05:38.734Z,100627.41
2022-12-04T21:08:09.485Z,100626.52
2022-12-04T21:10:40.028Z,100620.17
2022-12-04T21:13:43.261Z,100618.13
2022-12-04T21:16:13.786Z,100613.55
2022-12-04T21:18:44.235Z,100607.09
2022-12-04T21:21:14.776Z,100609.83
2022-12-04T21:23:45.300Z,100606.04
2022-12-04T21:26:16.135Z,100606.75
2022-12-04T21:28:46.562Z,100609.73
2022-12-04T21:31:17.107Z,100610.42
2022-12-04T21:33:47.728Z,100606.18
2022-12-04T21:36:18.684Z,100596.95
2022-12-04T21:38:49.161Z,100600.73
2022-12-04T21:41:34.079Z,100604.45
2022-12-04T21:44:06.616Z,100599.65
2022-12-04T21:46:37.624Z,100594.07
2022-12-04T21:49:08.617Z,100597.13
2022-12-04T21:51:56.921Z,100598.70
2022-12-04T21:54:29.038Z,100593.42
2022-12-04T21:57:00.179Z,100597.67
2022-12-04T21:59:30.886Z,100598.50
2022-12-04T22:02:01.931Z,100600.17
2022-12-04T22:04:32.650Z,100603.24
2022-12-04T22:07:03.197Z,100595.73
2022-12-04T22:09:33.953Z,100593.85
2022-12-04T22:12:26.298Z,100593.19
2022-12-04T22:14:55.696Z,100597.13
2022-12-04T22:17:29.606Z,100603.55
2022-12-04T22:20:00.147Z,100594.13
2022-12-04T22:22:30.837Z,100589.72
2022-12-04T22:25:01.743Z,100587.38
2022-12-04T22:27:32.384Z,100579.79
2022-12-04T22:30:03.171Z,100576.48
2022-12-04T22:32:33.797Z,100584.19
2022-12-04T22:35:04.374Z,100584.00
2022-12-04T22:37:37.476Z,100580.27
2022-12-04T22:40:12.545Z,100580.05
2022-12-04T22:42:43.317Z,100578.98
2022-12-04T22:45:14.343Z,100579.19
2022-12-04T22:47:44.871Z,100577.80
2022-12-04T22:50:15.367Z,100571.52
2022-12-04T22:52:45.829Z,100569.89
2022-12-04T22:55:16.231Z,100565.41
2022-12-04T22:57:46.645Z,100566.11
2022-12-04T23:00:18.196Z,100568.66
2022-12-04T23:02:48.935Z,100569.72
2022-12-04T23:05:19.484Z,100564.34
2022-12-04T23:07:49.962Z,100561.61
2022-12-04T23:10:20.674Z,100561.73
2022-12-04T23:12:51.089Z,100561.38
2022-12-04T23:15:22.340Z,100559.44
2022-12-04T23:17:52.837Z,100558.21
2022-12-04T23:20:23.342Z,100552.35
2022-12-04T23:22:55.769Z,100545.25
2022-12-04T23:25:26.189Z,100546.55
2022-12-04T23:27:57.014Z,100544.75
2022-12-04T23:30:30.535Z,100543.28
2022-12-04T23:33:03.055Z,100550.08
2022-12-04T23:35:33.778Z,100549.27
2022-12-04T23:38:04.157Z,100555.84
2022-12-04T23:40:34.591Z,100556.05
2022-12-04T23:43:05.025Z,100553.66
2022-12-04T23:45:35.469Z,100557.88
2022-12-04T23:48:06.634Z,100555.89
2022-12-04T23:50:37.334Z,100556.69
2022-12-04T23:53:07.830Z,100555.09
2022-12-04T23:55:38.378Z,100551.13
2022-12-04T23:58:08.829Z,100550.63
